Time;durP1;ratioP1;P1;durP2;ratioP2;P2;SDS_P1;SDS_P2;PMS_P1;PMS_P2;Temp;Humidity;BMP_temperature;BMP_pressure;BME280_temperature;BME280_humidity;BME280_pressure;Samples;Min_cycle;Max_cycle;Signal;HPM_P1;HPM_P2
2021/10/02 00:46:30;;;;;;;9.40;1.83;;;;;;;16.98;45.62;99859.09;4434785;32;20481;-69
2021/10/02 00:48:58;;;;;;;11.27;1.80;;;;;;;17.17;45.51;99841.19;4435843;32;20082;-69
2021/10/02 00:51:25;;;;;;;11.43;2.00;;;;;;;17.06;45.51;99840.31;4433267;32;20427;-69
2021/10/02 00:53:51;;;;;;;13.10;2.10;;;;;;;16.82;46.11;99837.78;4430561;32;20084;-69
2021/10/02 00:56:19;;;;;;;13.85;1.73;;;;;;;16.79;45.94;99829.47;4434048;32;20080;-69
2021/10/02 00:58:48;;;;;;;13.00;1.65;;;;;;;16.84;45.94;99823.06;4433439;32;20062;-69
2021/10/02 01:01:22;;;;;;;13.10;1.85;;;;;;;16.86;46.05;99824.13;4431311;32;20083;-69
2021/10/02 01:04:01;;;;;;;9.98;2.00;;;;;;;16.88;46.02;99818.69;4432956;32;20413;-69
2021/10/02 01:17:24;;;;;;;13.10;2.50;;;;;;;17.09;46.18;99805.94;3983715;32;15023029;-69
2021/10/02 01:20:00;;;;;;;13.52;2.05;;;;;;;17.09;46.18;99805.94;4436184;32;20109;-69
2021/10/02 01:30:41;;;;;;;11.77;2.12;;;;;;;16.79;46.90;99792.53;3976230;32;15022820;-70
2021/10/02 01:33:22;;;;;;;16.12;2.28;;;;;;;16.79;46.90;99792.53;4426910;32;20078;-69
2021/10/02 01:35:58;;;;;;;10.10;1.58;;;;;;;16.54;47.05;99779.16;4423449;32;20103;-69
2021/10/02 01:47:16;;;;;;;23.52;2.58;;;;;;;16.12;48.05;99779.72;4425909;32;20064;-69
2021/10/02 01:49:32;;;;;;;11.68;1.90;;;;;;;15.98;48.40;99768.47;4425655;32;20412;-69
2021/10/02 01:51:58;;;;;;;16.25;2.17;;;;;;;16.05;48.31;99765.19;4428837;32;20056;-69
2021/10/02 01:54:28;;;;;;;13.60;1.98;;;;;;;15.88;48.17;99762.97;4424091;32;20041;-70
2021/10/02 01:56:56;;;;;;;16.00;2.45;;;;;;;15.95;48.45;99759.69;4428080;32;20073;-70
2021/10/02 01:59:26;;;;;;;9.15;1.90;;;;;;;15.92;48.64;99762.72;4425879;32;20271;-69
2021/10/02 02:01:52;;;;;;;21.27;2.50;;;;;;;16.03;48.44;99760.03;4425945;32;20018;-69
2021/10/02 02:04:21;;;;;;;14.70;2.78;;;;;;;15.71;48.97;99761.97;4425551;32;20026;-69
2021/10/02 02:06:48;;;;;;;9.90;1.70;;;;;;;15.69;49.21;99758.06;4425184;32;20053;-69
2021/10/02 02:09:16;;;;;;;16.17;2.50;;;;;;;15.55;49.38;99753.25;4426540;32;20061;-68
2021/10/02 02:11:43;;;;;;;12.18;1.77;;;;;;;15.71;49.26;99744.94;4426429;32;20018;-69
2021/10/02 02:14:11;;;;;;;12.43;2.78;;;;;;;15.65;49.26;99749.00;4424889;32;20049;-69
2021/10/02 02:16:40;;;;;;;11.48;2.00;;;;;;;15.93;48.92;99741.59;4425483;32;20360;-69
2021/10/02 02:19:07;;;;;;;12.70;1.80;;;;;;;16.06;48.52;99733.47;4425697;32;20771;-69
2021/10/02 02:21:33;;;;;;;16.55;3.08;;;;;;;16.07;48.33;99728.59;4425752;32;20271;-69
2021/10/02 02:23:59;;;;;;;14.35;1.75;;;;;;;15.98;48.20;99733.13;4426828;32;20089;-69
2021/10/02 02:26:27;;;;;;;10.55;2.47;;;;;;;16.03;47.92;99731.66;4423941;32;20601;-69
2021/10/02 02:28:53;;;;;;;15.00;2.10;;;;;;;16.21;47.83;99725.63;4425439;32;20145;-69
2021/10/02 02:31:19;;;;;;;14.35;2.08;;;;;;;16.16;47.78;99726.34;4427078;32;20033;-69
2021/10/02 02:33:45;;;;;;;12.95;2.62;;;;;;;16.02;48.02;99709.44;4426209;32;20551;-69
2021/10/02 02:36:12;;;;;;;12.27;2.20;;;;;;;15.89;48.23;99716.28;4426252;32;20052;-69
2021/10/02 02:38:37;;;;;;;14.87;2.08;;;;;;;15.85;48.27;99698.69;4420093;32;20022;-69
2021/10/02 02:41:04;;;;;;;11.70;2.20;;;;;;;15.61;48.73;99706.66;4418970;32;20126;-69
2021/10/02 02:43:34;;;;;;;17.17;2.65;;;;;;;15.91;48.32;99693.06;4409891;32;20073;-69
2021/10/02 02:46:11;;;;;;;11.60;1.98;;;;;;;16.14;47.62;99689.16;4410315;32;20057;-68
2021/10/02 02:48:50;;;;;;;18.10;3.12;;;;;;;16.21;47.32;99685.91;4415449;32;20083;-69
2021/10/02 02:51:23;;;;;;;12.60;1.75;;;;;;;16.14;47.52;99692.00;4414667;32;20060;-69
2021/10/02 02:53:59;;;;;;;13.10;2.03;;;;;;;16.25;47.42;99691.31;4413105;32;20141;-69
2021/10/02 02:56:32;;;;;;;;;;;;;;;16.21;47.49;99690.78;4417727;32;20074;-69
2021/10/02 02:59:02;;;;;;;14.98;2.60;;;;;;;16.59;46.45;99691.16;4416103;32;19953;-69
2021/10/02 03:01:30;;;;;;;14.25;2.00;;;;;;;16.52;46.51;99685.94;4413381;32;20092;-69
2021/10/02 03:03:57;;;;;;;15.57;3.03;;;;;;;16.52;46.93;99671.72;4414235;32;20114;-69
2021/10/02 03:06:24;;;;;;;11.38;1.77;;;;;;;16.62;46.74;99666.63;4415027;32;20033;-69
2021/10/02 03:08:54;;;;;;;16.42;2.50;;;;;;;16.45;46.98;99660.06;4416672;32;20029;-69
2021/10/02 03:11:23;;;;;;;14.60;2.60;;;;;;;16.54;46.96;99659.88;4415204;32;20065;-69
2021/10/02 03:13:54;;;;;;;11.40;2.30;;;;;;;15.96;47.75;99658.31;4413858;32;20087;-69
2021/10/02 03:16:23;;;;;;;10.48;2.15;;;;;;;16.32;47.40;99662.50;4414018;32;20052;-69
2021/10/02 03:18:53;;;;;;;13.50;2.00;;;;;;;16.59;46.57;99661.94;4414910;32;20018;-69
2021/10/02 03:21:21;;;;;;;17.50;2.28;;;;;;;16.30;47.23;99645.97;4414442;32;20069;-69
2021/10/02 03:23:48;;;;;;;12.52;2.08;;;;;;;16.44;46.91;99638.62;4415480;32;20104;-69
2021/10/02 03:26:15;;;;;;;12.23;2.03;;;;;;;16.67;46.51;99643.97;4415419;32;20101;-69
2021/10/02 03:28:42;;;;;;;16.48;2.00;;;;;;;16.49;46.51;99635.81;4415876;32;20440;-69
2021/10/02 03:31:09;;;;;;;12.57;2.30;;;;;;;16.66;46.48;99631.03;4413276;32;20455;-69
2021/10/02 03:33:36;;;;;;;17.58;2.70;;;;;;;16.60;46.37;99623.75;4414609;32;20442;-69
2021/10/02 03:36:02;;;;;;;12.05;2.05;;;;;;;16.48;46.87;99624.97;4415306;32;20113;-69
2021/10/02 03:38:28;;;;;;;15.68;2.12;;;;;;;16.53;46.55;99615.69;4415089;32;20062;-69
2021/10/02 03:41:03;;;;;;;22.23;2.50;;;;;;;16.60;46.41;99613.16;4413926;32;20026;-69
2021/10/02 03:43:30;;;;;;;9.95;1.85;;;;;;;16.98;45.62;99609.78;4412822;32;20087;-69
2021/10/02 03:45:56;;;;;;;15.18;2.87;;;;;;;16.90;45.94;99607.91;4414423;32;20187;-69
2021/10/02 03:48:22;;;;;;;19.00;2.60;;;;;;;16.89;45.66;99607.16;4416132;32;20422;-69
2021/10/02 03:50:49;;;;;;;9.35;2.03;;;;;;;16.66;46.18;99599.78;4413908;32;20068;-69
2021/10/02 03:53:14;;;;;;;15.32;4.37;;;;;;;16.90;45.61;99607.91;4414014;32;20188;-69
2021/10/02 03:55:40;;;;;;;11.07;2.05;;;;;;;17.00;45.44;99612.09;4414601;32;20030;-69
2021/10/02 03:58:06;;;;;;;13.48;2.22;;;;;;;17.06;45.31;99604.37;4413668;32;20073;-69
2021/10/02 04:00:31;;;;;;;13.82;2.10;;;;;;;17.22;44.93;99601.62;4414826;32;20320;-69
2021/10/02 04:02:57;;;;;;;13.55;2.90;;;;;;;17.28;44.70;99602.38;4413826;32;20351;-69
2021/10/02 04:05:23;;;;;;;16.70;2.05;;;;;;;17.25;44.72;99594.12;4413046;32;20767;-69
2021/10/02 04:07:48;;;;;;;11.15;2.30;;;;;;;17.25;44.79;99589.19;4412703;32;20428;-69
2021/10/02 04:10:14;;;;;;;12.32;2.45;;;;;;;17.55;44.12;99575.38;4414305;32;20398;-69
2021/10/02 04:12:40;;;;;;;11.30;2.40;;;;;;;17.56;43.81;99560.63;4412383;32;20066;-68
2021/10/02 04:15:06;;;;;;;12.60;2.40;;;;;;;17.65;43.86;99566.03;4409764;32;20030;-69
2021/10/02 04:17:33;;;;;;;25.30;3.25;;;;;;;17.62;44.08;99572.75;4416406;32;20125;-69
2021/10/02 04:19:59;;;;;;;10.88;2.33;;;;;;;17.94;43.15;99552.63;4414959;32;20475;-69
2021/10/02 04:22:24;;;;;;;14.52;2.55;;;;;;;18.03;43.16;99553.13;4413727;32;20060;-69
2021/10/02 04:24:50;;;;;;;17.48;2.40;;;;;;;18.15;42.95;99551.84;4412793;32;20066;-69
2021/10/02 04:27:17;;;;;;;15.05;2.72;;;;;;;18.18;42.59;99558.56;4414523;32;20066;-69
2021/10/02 04:29:42;;;;;;;11.85;2.58;;;;;;;17.92;43.13;99553.91;4413436;32;20107;-69
2021/10/02 04:32:08;;;;;;;15.85;3.53;;;;;;;18.17;42.61;99557.00;4414234;32;20500;-69
2021/10/02 04:34:34;;;;;;;16.08;2.47;;;;;;;18.44;42.52;99548.44;4415233;32;20109;-69
2021/10/02 04:37:01;;;;;;;7.82;1.98;;;;;;;18.41;42.52;99551.59;4413746;32;20085;-69
2021/10/02 04:39:28;;;;;;;11.15;2.10;;;;;;;18.48;42.25;99545.34;4413026;32;20065;-69
2021/10/02 04:41:54;;;;;;;14.38;2.45;;;;;;;18.18;42.93;99539.41;4413257;32;20065;-69
2021/10/02 04:44:21;;;;;;;12.32;2.42;;;;;;;18.18;42.98;99533.72;4412519;32;20086;-69
2021/10/02 04:46:47;;;;;;;12.07;2.12;;;;;;;18.18;43.28;99535.78;4414650;32;20149;-69
2021/10/02 04:49:12;;;;;;;9.10;1.95;;;;;;;18.21;43.00;99534.75;4414142;32;20096;-67
2021/10/02 04:51:39;;;;;;;13.60;2.42;;;;;;;18.14;43.36;99524.66;4412371;32;20092;-67
2021/10/02 04:54:05;;;;;;;13.05;1.92;;;;;;;18.40;43.13;99532.91;4412266;32;20034;-68
2021/10/02 04:56:32;;;;;;;14.93;2.67;;;;;;;18.25;43.49;99524.62;4414565;32;20100;-67
2021/10/02 04:58:57;;;;;;;11.15;2.50;;;;;;;18.12;43.91;99515.88;4414721;32;20073;-67
2021/10/02 05:01:23;;;;;;;13.55;2.28;;;;;;;18.03;44.09;99507.59;4412313;32;20460;-67
2021/10/02 05:03:49;;;;;;;17.00;2.90;;;;;;;17.34;45.95;99502.91;4413273;32;20054;-67
2021/10/02 05:06:15;;;;;;;15.18;2.58;;;;;;;17.78;45.22;99489.50;4413635;32;20052;-69
2021/10/02 05:08:40;;;;;;;10.43;1.92;;;;;;;18.18;44.34;99485.31;4412352;32;20090;-69
2021/10/02 05:11:07;;;;;;;11.30;2.35;;;;;;;18.20;44.31;99487.62;4414625;32;20128;-69
2021/10/02 05:13:34;;;;;;;20.50;3.60;;;;;;;18.45;44.06;99481.66;4412173;32;20062;-69
2021/10/02 05:16:01;;;;;;;10.00;2.20;;;;;;;18.40;44.06;99461.72;4413299;32;20471;-69
2021/10/02 05:18:27;;;;;;;11.10;2.17;;;;;;;18.53;43.91;99461.94;4412442;32;20530;-69
2021/10/02 05:20:53;;;;;;;11.75;2.20;;;;;;;18.65;43.64;99440.66;4414182;32;20152;-68
2021/10/02 05:23:21;;;;;;;9.90;1.98;;;;;;;18.81;43.06;99446.25;4413188;32;20510;-69
2021/10/02 05:25:47;;;;;;;16.77;2.40;;;;;;;18.88;43.10;99442.06;4409174;32;20162;-69
2021/10/02 05:28:12;;;;;;;16.98;2.50;;;;;;;18.87;43.02;99438.44;4413615;32;20037;-69
2021/10/02 05:30:38;;;;;;;13.00;2.10;;;;;;;18.69;43.38;99444.00;4413271;32;20026;-69
2021/10/02 05:33:04;;;;;;;17.33;2.65;;;;;;;18.66;43.52;99445.03;4410941;32;20049;-69
2021/10/02 05:35:31;;;;;;;11.35;2.40;;;;;;;18.65;43.51;99447.09;4412731;32;20056;-69
2021/10/02 05:37:57;;;;;;;16.70;2.17;;;;;;;18.68;43.66;99445.31;4412626;32;20069;-69
2021/10/02 05:40:22;;;;;;;12.60;2.50;;;;;;;18.42;43.94;99445.66;4413688;32;20110;-69
2021/10/02 05:42:48;;;;;;;12.60;2.37;;;;;;;18.49;43.83;99439.41;4413049;32;20064;-69
2021/10/02 05:45:13;;;;;;;11.48;2.33;;;;;;;18.15;44.64;99440.00;4411178;32;20375;-69
2021/10/02 05:47:40;;;;;;;12.73;2.30;;;;;;;18.24;44.47;99437.66;4413879;32;20070;-69
2021/10/02 05:50:06;;;;;;;16.42;2.83;;;;;;;18.04;44.87;99431.50;4413098;32;20500;-69
2021/10/02 05:52:31;;;;;;;15.00;2.37;;;;;;;18.12;44.63;99430.44;4412038;32;20066;-69
2021/10/02 05:54:57;;;;;;;15.55;2.50;;;;;;;18.30;44.23;99443.34;4411680;32;20131;-69
2021/10/02 05:57:23;;;;;;;9.68;2.20;;;;;;;18.29;44.53;99422.66;4412699;32;20147;-69
2021/10/02 05:59:49;;;;;;;10.85;2.50;;;;;;;18.41;44.45;99401.38;4413011;32;20064;-69
2021/10/02 06:02:15;;;;;;;13.98;2.45;;;;;;;18.48;44.55;99403.69;4412781;32;20069;-69
2021/10/02 06:04:41;;;;;;;12.45;1.80;;;;;;;18.07;45.17;99414.16;4411607;32;20439;-69
2021/10/02 06:07:07;;;;;;;12.20;2.20;;;;;;;18.15;44.89;99406.63;4413340;32;21234;-69
2021/10/02 06:09:33;;;;;;;15.88;2.08;;;;;;;18.19;45.14;99392.88;4412836;32;20399;-69
2021/10/02 06:11:58;;;;;;;14.73;2.00;;;;;;;18.35;44.63;99394.13;4413065;32;20188;-69
2021/10/02 06:14:24;;;;;;;9.50;2.30;;;;;;;18.21;44.74;99383.81;4411612;32;20089;-69
2021/10/02 06:16:50;;;;;;;14.40;2.12;;;;;;;18.31;44.63;99379.41;4413629;32;20026;-69
2021/10/02 06:19:17;;;;;;;16.70;2.60;;;;;;;18.42;44.39;99373.66;4416872;32;20431;-69
2021/10/02 06:21:44;;;;;;;10.05;2.12;;;;;;;18.30;44.61;99375.00;4415539;32;20065;-69
2021/10/02 06:24:10;;;;;;;7.25;1.30;;;;;;;18.43;44.35;99372.38;4413739;32;20063;-69
2021/10/02 06:26:37;;;;;;;11.63;2.17;;;;;;;18.51;44.14;99373.38;4414458;32;20096;-69
2021/10/02 06:29:04;;;;;;;15.93;1.90;;;;;;;18.36;44.50;99367.97;4416154;32;20160;-69
2021/10/02 06:31:30;;;;;;;6.75;1.55;;;;;;;18.52;44.14;99357.81;4416070;32;20094;-69
2021/10/02 06:33:56;;;;;;;15.93;1.87;;;;;;;18.45;44.18;99350.63;4416083;32;20439;-69
2021/10/02 06:36:21;;;;;;;17.25;2.25;;;;;;;18.47;43.68;99341.53;4416805;32;20140;-69
2021/10/02 06:38:47;;;;;;;8.85;1.45;;;;;;;18.26;44.15;99332.56;4416319;32;20137;-69
2021/10/02 06:41:13;;;;;;;10.88;1.70;;;;;;;18.71;43.41;99330.25;4415348;32;20030;-69
2021/10/02 06:43:38;;;;;;;13.68;1.80;;;;;;;18.67;43.46;99324.84;4415328;32;20529;-69
2021/10/02 06:46:04;;;;;;;7.72;1.50;;;;;;;18.77;43.22;99313.88;4414231;32;20429;-69
2021/10/02 06:48:30;;;;;;;10.45;1.80;;;;;;;18.74;43.24;99310.00;4414813;32;20082;-69
2021/10/02 06:50:56;;;;;;;10.05;1.60;;;;;;;18.69;43.23;99312.91;4415549;32;20363;-69
2021/10/02 06:53:22;;;;;;;14.25;1.60;;;;;;;18.58;43.61;99316.59;4415951;32;20045;-69
2021/10/02 06:55:48;;;;;;;9.98;1.27;;;;;;;18.76;43.35;99298.09;4415123;32;20539;-69
2021/10/02 06:58:14;;;;;;;12.25;1.80;;;;;;;18.40;43.92;99291.59;4415210;32;20062;-69
2021/10/02 07:00:40;;;;;;;11.80;2.00;;;;;;;18.14;44.63;99282.66;4416366;32;20091;-69
2021/10/02 07:03:06;;;;;;;19.00;2.05;;;;;;;18.13;44.64;99278.25;4415120;32;20415;-69
2021/10/02 07:05:33;;;;;;;9.70;1.30;;;;;;;18.08;44.71;99281.91;4413770;32;20033;-69
2021/10/02 07:07:59;;;;;;;13.80;2.08;;;;;;;17.86;45.45;99279.16;4416528;32;20133;-68
2021/10/02 07:10:25;;;;;;;9.95;1.45;;;;;;;17.98;45.17;99277.81;4414732;32;20112;-68
2021/10/02 07:12:53;;;;;;;12.13;1.77;;;;;;;17.37;46.31;99272.28;4413949;32;20065;-68
2021/10/02 07:15:20;;;;;;;12.07;1.98;;;;;;;17.61;46.22;99255.44;4415617;32;20407;-68
2021/10/02 07:17:46;;;;;;;12.45;2.00;;;;;;;17.53;46.27;99263.00;4415817;32;20123;-68
2021/10/02 07:20:14;;;;;;;16.27;2.10;;;;;;;17.66;46.05;99266.06;4415037;32;20070;-68
2021/10/02 07:22:41;;;;;;;16.12;2.15;;;;;;;17.91;45.57;99263.38;4415093;32;20203;-68
2021/10/02 07:25:11;;;;;;;11.02;2.28;;;;;;;17.90;45.43;99273.97;4414453;32;20092;-68
2021/10/02 07:27:38;;;;;;;11.90;2.45;;;;;;;18.21;44.76;99267.09;4415314;32;20080;-68
2021/10/02 07:30:05;;;;;;;13.10;2.30;;;;;;;18.57;43.97;99266.63;4414762;32;20419;-68
2021/10/02 07:32:31;;;;;;;15.27;2.10;;;;;;;18.61;44.10;99266.34;4414914;32;20083;-68
2021/10/02 07:34:57;;;;;;;15.02;1.95;;;;;;;18.87;43.41;99258.12;4412701;32;20137;-68
2021/10/02 07:37:23;;;;;;;14.73;2.47;;;;;;;18.84;43.37;99259.19;4416634;32;20439;-68
2021/10/02 07:39:49;;;;;;;12.23;1.90;;;;;;;18.79;43.40;99260.75;4413664;32;20169;-68
2021/10/02 07:42:17;;;;;;;15.25;2.87;;;;;;;19.02;42.87;99256.41;4413489;32;20120;-68
2021/10/02 07:44:44;;;;;;;13.48;2.53;;;;;;;18.82;43.29;99248.31;4411718;32;20092;-68
2021/10/02 07:47:11;;;;;;;20.52;2.50;;;;;;;19.27;42.71;99232.34;4415712;32;20073;-68
2021/10/02 07:49:37;;;;;;;12.85;2.33;;;;;;;18.52;43.89;99229.63;4414171;32;20085;-68
2021/10/02 07:52:05;;;;;;;13.55;2.75;;;;;;;18.57;44.03;99229.59;4413985;32;20453;-68
2021/10/02 07:54:33;;;;;;;19.65;3.00;;;;;;;18.50;44.37;99212.31;4412914;32;20017;-68
2021/10/02 07:56:59;;;;;;;11.57;2.25;;;;;;;18.51;44.42;99193.91;4412837;32;20037;-68
2021/10/02 07:59:27;;;;;;;18.10;2.80;;;;;;;18.55;44.01;99202.94;4415048;32;20096;-68
2021/10/02 08:01:53;;;;;;;15.95;2.50;;;;;;;18.95;43.48;99184.94;4414444;32;20034;-68
2021/10/02 08:04:19;;;;;;;12.10;2.78;;;;;;;18.80;43.59;99173.94;4413044;32;20041;-68
2021/10/02 08:06:48;;;;;;;9.75;2.28;;;;;;;18.80;43.34;99176.03;4413456;32;20030;-68
2021/10/02 08:09:14;;;;;;;9.50;2.10;;;;;;;18.88;43.59;99165.59;4413975;32;20073;-68
2021/10/02 08:11:42;;;;;;;12.63;2.12;;;;;;;18.61;44.01;99152.38;4412764;32;20059;-68
2021/10/02 08:14:08;;;;;;;13.95;1.95;;;;;;;18.25;45.07;99153.69;4413452;32;20053;-68
2021/10/02 08:16:36;;;;;;;7.50;2.30;;;;;;;18.55;44.22;99155.28;4416058;32;20060;-68
2021/10/02 08:19:05;;;;;;;15.02;3.28;;;;;;;18.81;43.99;99166.19;4414070;32;20421;-68
2021/10/02 08:21:31;;;;;;;11.60;1.73;;;;;;;18.81;43.89;99157.63;4414323;32;20073;-68
2021/10/02 08:23:59;;;;;;;14.70;1.40;;;;;;;18.73;43.97;99148.91;4413291;32;20065;-68
2021/10/02 08:26:27;;;;;;;13.73;1.95;;;;;;;19.04;43.17;99136.12;4414092;32;20049;-68
2021/10/02 08:28:53;;;;;;;13.73;1.62;;;;;;;19.24;42.81;99127.84;4412866;32;20042;-68
2021/10/02 08:31:22;;;;;;;9.43;1.70;;;;;;;19.84;41.94;99128.41;4410766;32;20082;-68
2021/10/02 08:33:49;;;;;;;9.98;1.70;;;;;;;20.10;41.15;99125.69;4413619;32;20479;-68
2021/10/02 08:36:15;;;;;;;14.57;2.00;;;;;;;19.80;41.55;99111.56;4413073;32;20085;-68
2021/10/02 08:38:41;;;;;;;13.82;2.20;;;;;;;19.32;42.36;99110.94;4414308;32;20103;-68
2021/10/02 08:41:09;;;;;;;13.05;1.55;;;;;;;19.00;43.07;99115.72;4413261;32;20132;-68
2021/10/02 08:43:38;;;;;;;9.25;1.30;;;;;;;19.30;42.68;99113.56;4412944;32;20465;-68
2021/10/02 08:46:06;;;;;;;12.27;1.77;;;;;;;19.49;42.43;99100.09;4412045;32;20129;-68
2021/10/02 08:48:32;;;;;;;9.82;1.48;;;;;;;19.44;42.60;99103.78;4412689;32;20064;-68
2021/10/02 08:51:01;;;;;;;11.12;1.77;;;;;;;18.77;43.78;99100.13;4414648;32;20061;-68
2021/10/02 08:53:30;;;;;;;17.42;1.70;;;;;;;18.80;44.07;99087.66;4413973;32;20152;-68
2021/10/02 08:55:56;;;;;;;12.95;2.30;;;;;;;19.18;43.29;99077.91;4410772;32;20054;-68
2021/10/02 08:58:23;;;;;;;11.60;2.30;;;;;;;19.21;43.18;99083.28;4412569;32;20030;-68
2021/10/02 09:00:50;;;;;;;14.23;2.10;;;;;;;19.02;43.11;99068.25;4413182;32;20079;-69
2021/10/02 09:03:16;;;;;;;9.00;1.92;;;;;;;19.88;41.90;99062.44;4413192;32;20165;-68
2021/10/02 09:05:42;;;;;;;11.80;2.15;;;;;;;19.46;42.48;99056.28;4412652;32;20065;-68
2021/10/02 09:08:08;;;;;;;9.38;1.42;;;;;;;19.15;42.99;99056.19;4412261;32;20160;-68
2021/10/02 09:10:36;;;;;;;13.90;2.15;;;;;;;18.94;43.45;99049.44;4411659;32;20521;-68
2021/10/02 09:13:03;;;;;;;11.82;1.80;;;;;;;18.79;43.78;99035.63;4412994;32;20041;-68
2021/10/02 09:15:29;;;;;;;8.82;1.92;;;;;;;19.15;43.22;99033.37;4412672;32;20098;-68
2021/10/02 09:17:56;;;;;;;12.82;2.10;;;;;;;19.42;42.72;99018.00;4412849;32;21044;-68
2021/10/02 09:20:23;;;;;;;15.35;1.70;;;;;;;19.30;42.66;99005.19;4413731;32;20090;-68
2021/10/02 09:23:09;;;;;;;10.43;1.90;;;;;;;19.47;42.59;99002.84;4412058;32;20375;-68
2021/10/02 09:25:36;;;;;;;12.45;2.05;;;;;;;20.03;41.38;98989.22;4412722;32;20096;-68
2021/10/02 09:28:05;;;;;;;9.55;1.35;;;;;;;19.77;41.81;98974.88;4411098;32;20026;-68
2021/10/02 09:30:31;;;;;;;12.48;1.95;;;;;;;19.76;41.96;98964.78;4412773;32;20097;-68
2021/10/02 09:33:05;;;;;;;17.75;1.90;;;;;;;19.94;41.61;98966.81;4413611;32;20474;-68
2021/10/02 09:35:36;;;;;;;8.27;1.98;;;;;;;20.05;41.66;98966.63;4413680;32;20403;-69
2021/10/02 09:38:02;;;;;;;8.55;1.65;;;;;;;20.00;41.57;98958.91;4412652;32;20628;-69
2021/10/02 09:40:28;;;;;;;17.48;2.30;;;;;;;20.10;41.31;98937.19;4411996;32;20065;-68
2021/10/02 09:42:57;;;;;;;12.05;1.95;;;;;;;20.22;41.05;98946.34;4414169;32;20041;-68
2021/10/02 09:48:06;;;;;;;12.25;1.62;;;;;;;20.59;40.78;98920.44;3983527;32;15074963;-69
2021/10/02 09:50:35;;;;;;;19.00;2.08;;;;;;;20.59;40.78;98920.44;4436150;32;20095;-69
2021/10/02 09:53:04;;;;;;;9.88;1.42;;;;;;;20.00;41.86;98916.06;4437262;32;20033;-69
2021/10/02 09:55:35;;;;;;;10.57;1.85;;;;;;;19.75;42.21;98909.00;4434235;32;20125;-69
2021/10/02 09:58:05;;;;;;;12.57;2.15;;;;;;;19.36;43.11;98888.94;4436804;32;20122;-69
2021/10/02 10:00:34;;;;;;;11.95;1.85;;;;;;;19.55;42.95;98896.13;4438277;32;20024;-69
2021/10/02 10:03:05;;;;;;;10.10;2.15;;;;;;;19.92;42.22;98892.38;4434480;32;20156;-69
2021/10/02 10:05:36;;;;;;;12.98;1.80;;;;;;;19.98;41.93;98892.25;4437312;32;20090;-69
2021/10/02 10:08:05;;;;;;;12.48;3.20;;;;;;;20.25;41.56;98891.75;4434374;32;20029;-69
2021/10/02 10:10:33;;;;;;;13.20;1.75;;;;;;;20.19;41.81;98873.19;4435021;32;20029;-69
2021/10/02 10:13:09;;;;;;;14.57;1.73;;;;;;;20.20;41.76;98864.06;4433537;32;20014;-69
2021/10/02 10:18:13;;;;;;;13.65;1.80;;;;;;;20.40;42.09;98860.53;3983935;32;15024395;-69
2021/10/02 10:23:26;;;;;;;13.70;2.65;;;;;;;20.04;42.82;98833.75;3985325;32;15024099;-69
2021/10/02 10:25:55;;;;;;;19.48;2.20;;;;;;;20.04;42.82;98833.75;4438871;32;20029;-69
2021/10/02 10:28:24;;;;;;;10.55;1.92;;;;;;;19.54;44.04;98831.03;4440976;32;20085;-69
2021/10/02 10:30:52;;;;;;;13.07;1.73;;;;;;;19.38;44.52;98823.56;4439754;32;20069;-69
2021/10/02 10:33:19;;;;;;;9.25;1.90;;;;;;;19.14;45.48;98824.44;4440775;32;20354;-68
2021/10/02 10:38:24;;;;;;;9.20;1.20;;;;;;;19.95;45.51;98814.19;3991390;32;15029188;-67
2021/10/02 10:40:52;;;;;;;14.43;2.15;;;;;;;19.95;45.51;98814.19;4447526;32;20045;-67
2021/10/02 10:43:18;;;;;;;10.98;1.90;;;;;;;19.16;46.57;98803.94;4447801;32;20619;-67
2021/10/02 10:45:44;;;;;;;11.82;1.37;;;;;;;19.20;47.03;98807.22;4445856;32;20149;-68
2021/10/02 10:48:10;;;;;;;11.73;1.80;;;;;;;19.07;47.77;98801.50;4448237;32;20069;-68
2021/10/02 10:50:41;;;;;;;10.82;2.17;;;;;;;18.97;47.96;98801.16;4432211;32;20100;-67
2021/10/02 10:53:09;;;;;;;9.35;1.42;;;;;;;19.10;47.93;98781.22;4445975;32;20048;-67
2021/10/02 10:55:53;;;;;;;13.98;2.05;;;;;;;18.64;49.27;98776.00;4444517;32;20072;-67
2021/10/02 10:58:25;;;;;;;9.60;2.25;;;;;;;18.72;49.13;98776.16;4446219;32;20055;-66
2021/10/02 11:00:51;;;;;;;15.18;2.55;;;;;;;18.53;50.04;98772.56;4449961;32;20029;-66
2021/10/02 11:06:16;;;;;;;12.93;1.95;;;;;;;19.30;48.79;98748.53;3983423;32;15023442;-67
2021/10/02 11:17:44;;;;;;;11.07;2.20;;;;;;;19.59;48.45;98716.06;3974144;32;15023063;-68
2021/10/02 11:23:33;;;;;;;9.73;1.60;;;;;;;19.53;49.00;98703.97;3982959;32;15022491;-67
2021/10/02 11:26:24;;;;;;;17.30;2.45;;;;;;;19.53;49.00;98703.97;4437079;32;20078;-69
2021/10/02 11:31:42;;;;;;;17.30;2.12;;;;;;;19.50;49.82;98674.47;3984018;32;15023482;-68
2021/10/02 11:34:17;;;;;;;15.50;2.50;;;;;;;19.50;49.82;98674.47;4434298;32;20115;-68
2021/10/02 11:36:46;;;;;;;8.63;1.67;;;;;;;18.95;50.75;98663.31;4432448;32;20025;-68
2021/10/02 11:44:48;;;;;;;12.40;2.10;;;;;;;19.23;51.23;98632.19;3981875;32;15025789;-69
2021/10/02 11:47:35;;;;;;;14.90;1.95;;;;;;;19.23;51.23;98632.19;4435511;32;20029;-69
2021/10/02 12:03:27;;;;;;;13.30;4.82;;;;;;;18.53;53.04;98599.56;3982293;32;15023121;-69
2021/10/02 12:05:55;;;;;;;15.48;2.28;;;;;;;18.34;53.85;98569.59;4432667;32;20414;-69
2021/10/02 12:08:22;;;;;;;23.50;2.80;;;;;;;18.26;54.30;98563.00;4433680;32;20063;-68
2021/10/02 12:11:09;;;;;;;11.27;2.40;;;;;;;18.36;54.12;98561.28;4431628;32;20145;-67
2021/10/02 12:13:39;;;;;;;17.55;3.00;;;;;;;18.96;52.94;98543.06;4433427;32;20096;-68
2021/10/02 12:16:07;;;;;;;9.32;1.83;;;;;;;19.30;52.88;98538.22;4431289;32;20065;-68
2021/10/02 12:21:41;;;;;;;11.32;2.25;;;;;;;18.95;53.62;98512.25;3955062;32;15724446;-69
2021/10/02 12:24:16;;;;;;;14.70;2.55;;;;;;;18.95;53.62;98512.25;4434672;32;20100;-69
2021/10/02 12:26:48;;;;;;;10.80;2.25;;;;;;;18.40;54.58;98501.94;4431999;32;20045;-69
2021/10/02 12:29:17;;;;;;;15.40;2.80;;;;;;;18.78;54.09;98483.34;4429937;32;20102;-69
2021/10/02 12:31:56;;;;;;;11.02;2.05;;;;;;;18.84;54.10;98467.66;4432141;32;21092;-69
2021/10/02 12:37:02;;;;;;;13.43;2.40;;;;;;;20.22;51.10;98446.56;3983613;32;15022121;-69
2021/10/02 12:39:34;;;;;;;11.93;2.83;;;;;;;20.22;51.10;98446.56;4434534;32;20492;-69
2021/10/02 12:42:00;;;;;;;14.13;2.50;;;;;;;19.93;51.56;98436.38;4435889;32;20130;-67
2021/10/02 12:44:30;;;;;;;13.82;3.05;;;;;;;19.05;52.93;98417.19;4434676;32;20038;-68
2021/10/02 12:46:58;;;;;;;7.78;1.85;;;;;;;19.16;53.39;98414.09;4433844;32;20034;-68
2021/10/02 12:49:25;;;;;;;19.77;3.67;;;;;;;19.15;53.21;98406.09;4432955;32;20411;-68
2021/10/02 12:51:51;;;;;;;12.95;2.00;;;;;;;19.76;52.32;98396.88;4437800;32;20084;-68
2021/10/02 12:54:26;;;;;;;16.15;2.42;;;;;;;19.51;52.42;98379.31;4434875;32;20038;-68
2021/10/02 12:59:45;;;;;;;9.82;2.67;;;;;;;19.63;52.43;98357.75;3983956;32;15023938;-67
2021/10/02 13:02:12;;;;;;;12.75;2.20;;;;;;;19.63;52.43;98357.75;4432238;32;20092;-68
2021/10/02 13:04:38;;;;;;;10.57;2.47;;;;;;;19.13;53.62;98363.13;4434673;32;20052;-68
2021/10/02 13:07:04;;;;;;;18.00;2.65;;;;;;;19.25;53.31;98358.69;4437513;32;20427;-68
2021/10/02 13:09:30;;;;;;;13.70;2.83;;;;;;;19.65;52.46;98349.41;4438484;32;20037;-68
2021/10/02 13:12:06;;;;;;;10.75;2.40;;;;;;;19.19;53.18;98343.81;4435720;32;20078;-68
2021/10/02 13:14:35;;;;;;;18.08;2.72;;;;;;;19.71;52.45;98332.91;4434946;32;20128;-69
2021/10/02 13:17:05;;;;;;;15.95;2.87;;;;;;;19.71;52.24;98320.72;4434057;32;20033;-68
2021/10/02 13:19:32;;;;;;;9.23;2.37;;;;;;;19.97;52.15;98314.06;4437037;32;20033;-68
2021/10/02 13:22:19;;;;;;;12.57;2.58;;;;;;;20.18;51.82;98306.97;4434760;32;20216;-68
2021/10/02 13:25:07;;;;;;;5.45;1.77;;;;;;;20.29;51.05;98315.25;4435349;32;20631;-68
2021/10/02 13:27:36;;;;;;;7.87;2.20;;;;;;;19.88;51.84;98298.19;4435495;32;20037;-68
2021/10/02 13:35:34;;;;;;;11.63;2.67;;;;;;;20.49;51.18;98257.22;3981951;32;15022763;-69
2021/10/02 13:38:00;;;;;;;6.87;2.03;;;;;;;20.49;51.18;98257.22;4435562;32;20034;-69
2021/10/02 13:40:30;;;;;;;11.77;2.72;;;;;;;19.78;52.06;98252.28;4436326;32;20026;-69
2021/10/02 13:42:58;;;;;;;14.77;2.97;;;;;;;20.14;52.25;98248.69;4433629;32;20211;-69